Time;durP1;ratioP1;P1;durP2;ratioP2;P2;SDS_P1;SDS_P2;PMS_P1;PMS_P2;Temp;Humidity;BMP_temperature;BMP_pressure;BME280_temperature;BME280_humidity;BME280_pressure;Samples;Min_cycle;Max_cycle;Signal;HPM_P1;HPM_P2
2023/02/05 00:02:15;;;;;;;3.03;2.83;;;;;;;-142.52;100.00;62712.56;6041304;29;20682;-70
2023/02/05 00:06:34;;;;;;;3.37;2.73;;;;;;;-142.52;100.00;62712.56;6052914;29;20267;-69
2023/02/05 00:10:54;;;;;;;1.57;1.47;;;;;;;-142.52;100.00;62712.56;6048184;29;20226;-70
2023/02/05 00:15:14;;;;;;;2.30;2.10;;;;;;;-142.52;100.00;62712.56;6025277;29;20541;-69
2023/02/05 00:19:34;;;;;;;4.70;3.03;;;;;;;-142.52;100.00;62712.56;6045912;29;20237;-70
2023/02/05 00:23:53;;;;;;;2.30;2.13;;;;;;;-142.52;100.00;62712.56;6055176;29;20237;-70
2023/02/05 00:28:14;;;;;;;3.90;2.90;;;;;;;-142.52;100.00;62712.56;6034961;29;20312;-70
2023/02/05 00:32:34;;;;;;;2.27;1.70;;;;;;;-142.52;100.00;62712.56;6032045;29;20580;-70
2023/02/05 00:36:53;;;;;;;3.43;2.67;;;;;;;-142.52;100.00;62712.56;6046482;29;20240;-70
2023/02/05 00:41:12;;;;;;;1.77;1.67;;;;;;;-142.52;100.00;62712.56;6034535;29;20241;-70
2023/02/05 00:45:34;;;;;;;1.47;1.37;;;;;;;-142.52;100.00;62712.56;6048106;29;20245;-70
2023/02/05 00:49:53;;;;;;;1.87;1.30;;;;;;;-142.52;100.00;62712.56;6036674;29;20652;-69
2023/02/05 00:54:13;;;;;;;2.23;1.20;;;;;;;-142.52;100.00;62712.56;6040077;29;20228;-69
2023/02/05 00:58:32;;;;;;;1.07;0.90;;;;;;;-142.52;100.00;62712.56;6038557;29;20233;-70
2023/02/05 01:02:53;;;;;;;3.30;1.67;;;;;;;-142.52;100.00;62712.56;6049595;29;20221;-70
2023/02/05 01:07:12;;;;;;;2.30;2.13;;;;;;;-142.52;100.00;62712.56;6049863;29;20238;-71
2023/02/05 01:11:32;;;;;;;1.27;1.17;;;;;;;-142.52;100.00;62712.56;6032680;29;20234;-70
2023/02/05 01:15:52;;;;;;;1.50;1.40;;;;;;;-142.52;100.00;62712.56;6037471;29;20615;-71
2023/02/05 01:20:13;;;;;;;1.47;1.37;;;;;;;-142.52;100.00;62712.56;6041501;29;20258;-70
2023/02/05 01:24:32;;;;;;;3.83;2.60;;;;;;;-142.52;100.00;62712.56;6029094;29;20245;-71
2023/02/05 01:28:51;;;;;;;1.90;1.80;;;;;;;-142.52;100.00;62712.56;6030808;29;20234;-70
2023/02/05 01:33:11;;;;;;;1.97;1.60;;;;;;;-142.52;100.00;62712.56;6030565;29;20248;-69
2023/02/05 01:37:31;;;;;;;1.93;1.20;;;;;;;-142.52;100.00;62712.56;6056882;29;20245;-70
2023/02/05 01:41:51;;;;;;;1.97;1.73;;;;;;;-142.52;100.00;62712.56;6046842;29;20237;-71
2023/02/05 01:46:39;;;;;;;2.30;2.20;;;;;;;-142.52;100.00;62712.56;6032971;29;20328;-70
2023/02/05 01:51:01;;;;;;;3.10;2.90;;;;;;;-142.52;100.00;62712.56;6032764;29;20568;-71
2023/02/05 01:55:22;;;;;;;3.00;1.33;;;;;;;-142.52;100.00;62712.56;6034694;29;20236;-70
2023/02/05 01:59:45;;;;;;;1.33;1.23;;;;;;;-142.52;100.00;62712.56;6051258;29;20244;-70
2023/02/05 02:04:04;;;;;;;1.33;1.00;;;;;;;-142.52;100.00;62712.56;6024041;29;20572;-70
2023/02/05 02:08:24;;;;;;;3.93;1.50;;;;;;;-142.52;100.00;62712.56;6071281;29;20229;-71
2023/02/05 02:12:46;;;;;;;1.93;1.77;;;;;;;-142.52;100.00;62712.56;6047820;29;20242;-70
2023/02/05 02:17:07;;;;;;;1.10;1.10;;;;;;;-142.52;100.00;62712.56;6047967;29;21375;-71
2023/02/05 02:21:40;;;;;;;1.00;1.00;;;;;;;-142.52;100.00;62712.56;6036348;29;20238;-70
2023/02/05 02:26:25;;;;;;;1.90;1.70;;;;;;;-142.52;100.00;62712.56;6050686;29;20229;-71
2023/02/05 02:30:56;;;;;;;0.93;0.93;;;;;;;-142.52;100.00;62712.56;6042684;29;20237;-71
2023/02/05 02:35:21;;;;;;;2.53;1.50;;;;;;;-142.52;100.00;62712.56;6047321;29;20627;-71
2023/02/05 02:39:48;;;;;;;4.40;1.93;;;;;;;-142.52;100.00;62712.56;6055850;29;20232;-70
2023/02/05 02:44:10;;;;;;;2.83;2.73;;;;;;;-142.52;100.00;62712.56;6058354;29;20797;-70
2023/02/05 02:48:36;;;;;;;1.53;1.43;;;;;;;-142.52;100.00;62712.56;6058921;29;20229;-70
2023/02/05 02:52:58;;;;;;;1.43;1.20;;;;;;;-142.52;100.00;62712.56;6057102;29;20503;-71
2023/02/05 02:57:20;;;;;;;3.47;1.37;;;;;;;-142.52;100.00;62712.56;6042657;29;20846;-71
2023/02/05 03:01:43;;;;;;;1.20;1.17;;;;;;;-142.52;100.00;62712.56;6051774;29;20237;-71
2023/02/05 03:06:09;;;;;;;1.53;1.17;;;;;;;-142.52;100.00;62712.56;6051977;29;20240;-70
2023/02/05 03:10:37;;;;;;;2.00;1.60;;;;;;;-142.52;100.00;62712.56;6044085;29;20264;-71
2023/02/05 03:14:58;;;;;;;1.37;1.23;;;;;;;-142.52;100.00;62712.56;6027465;29;20245;-71
2023/02/05 03:19:18;;;;;;;1.33;1.23;;;;;;;-142.52;100.00;62712.56;6049961;29;20231;-70
2023/02/05 03:23:39;;;;;;;4.87;1.40;;;;;;;-142.52;100.00;62712.56;6053228;29;20273;-70
2023/02/05 03:27:59;;;;;;;1.93;1.70;;;;;;;-142.52;100.00;62712.56;6040086;29;20229;-70
2023/02/05 03:32:30;;;;;;;2.23;1.37;;;;;;;-142.52;100.00;62712.56;6047020;29;20623;-70
2023/02/05 03:37:00;;;;;;;1.70;1.60;;;;;;;-142.52;100.00;62712.56;6054095;29;20544;-70
2023/02/05 03:46:18;;;;;;;3.27;1.67;;;;;;;-142.52;100.00;62712.56;6052725;29;20233;-71
2023/02/05 03:50:51;;;;;;;1.97;1.87;;;;;;;-142.52;100.00;62712.56;6045696;29;20248;-70
2023/02/05 03:55:18;;;;;;;1.00;1.00;;;;;;;-142.52;100.00;62712.56;6046434;29;20237;-70
2023/02/05 03:59:41;;;;;;;1.70;1.20;;;;;;;-142.52;100.00;62712.56;6068307;29;20232;-71
2023/02/05 04:04:01;;;;;;;1.63;1.53;;;;;;;-142.52;100.00;62712.56;6047426;29;20237;-70
2023/02/05 04:08:21;;;;;;;1.73;1.27;;;;;;;-142.52;100.00;62712.56;6040686;29;20237;-71
2023/02/05 04:12:44;;;;;;;2.23;1.57;;;;;;;-142.52;100.00;62712.56;6031305;29;20558;-71
2023/02/05 04:17:06;;;;;;;2.07;1.87;;;;;;;-142.52;100.00;62712.56;6022717;29;20242;-70
2023/02/05 04:21:27;;;;;;;1.40;1.30;;;;;;;-142.52;100.00;62712.56;6053874;29;22314;-70
2023/02/05 04:25:46;;;;;;;1.50;1.40;;;;;;;-142.52;100.00;62712.56;6050213;29;20648;-70
2023/02/05 04:30:19;;;;;;;1.73;1.63;;;;;;;-142.52;100.00;62712.56;6043809;29;20269;-70
2023/02/05 04:34:41;;;;;;;1.77;1.43;;;;;;;-142.52;100.00;62712.56;6057821;29;20639;-71
2023/02/05 04:39:03;;;;;;;3.87;1.23;;;;;;;-142.52;100.00;62712.56;6032213;29;20241;-69
2023/02/05 04:43:23;;;;;;;1.00;1.00;;;;;;;-142.52;100.00;62712.56;6034216;29;20259;-69
2023/02/05 04:47:42;;;;;;;1.50;1.40;;;;;;;-142.52;100.00;62712.56;6044411;29;20264;-70
2023/02/05 04:52:05;;;;;;;2.40;1.67;;;;;;;-142.52;100.00;62712.56;6046290;29;20563;-71
2023/02/05 04:56:25;;;;;;;1.10;1.10;;;;;;;-142.52;100.00;62712.56;6037956;29;20868;-71
2023/02/05 05:00:44;;;;;;;1.47;1.37;;;;;;;-142.52;100.00;62712.56;6061752;29;20226;-70
2023/02/05 05:05:03;;;;;;;1.37;1.20;;;;;;;-142.52;100.00;62712.56;6040110;29;20504;-70
2023/02/05 05:09:24;;;;;;;1.70;1.30;;;;;;;-142.52;100.00;62712.56;6044507;29;20360;-71
2023/02/05 05:13:44;;;;;;;1.30;1.10;;;;;;;-142.52;100.00;62712.56;6051198;29;20323;-70
2023/02/05 05:18:03;;;;;;;2.83;2.60;;;;;;;-142.52;100.00;62712.56;6030776;29;20242;-71
2023/02/05 05:22:23;;;;;;;2.00;1.53;;;;;;;-142.52;100.00;62712.56;6050593;29;20741;-71
2023/02/05 05:26:45;;;;;;;1.50;1.40;;;;;;;-142.52;100.00;62712.56;6043406;29;20258;-70
2023/02/05 05:31:07;;;;;;;1.60;1.50;;;;;;;-142.52;100.00;62712.56;6059607;29;20277;-70
2023/02/05 05:35:26;;;;;;;3.23;1.67;;;;;;;-142.52;100.00;62712.56;6039678;29;20266;-70
2023/02/05 05:44:23;;;;;;;3.63;1.50;;;;;;;-142.52;100.00;62712.56;6050158;29;20230;-70
2023/02/05 05:48:43;;;;;;;1.60;1.50;;;;;;;-142.52;100.00;62712.56;6042087;29;20237;-70
2023/02/05 05:53:02;;;;;;;1.83;1.73;;;;;;;-142.52;100.00;62712.56;6038049;29;22202;-71
2023/02/05 05:57:22;;;;;;;1.30;1.30;;;;;;;-142.52;100.00;62712.56;6031970;29;20324;-70
2023/02/05 06:01:43;;;;;;;2.33;1.73;;;;;;;-142.52;100.00;62712.56;6033766;29;20499;-70
2023/02/05 06:06:03;;;;;;;1.90;1.80;;;;;;;-142.52;100.00;62712.56;6049359;29;20813;-71
2023/02/05 06:10:22;;;;;;;3.40;2.37;;;;;;;-142.52;100.00;62712.56;6033102;29;20829;-70
2023/02/05 06:14:42;;;;;;;5.50;1.63;;;;;;;-142.52;100.00;62712.56;6031400;29;20756;-70
2023/02/05 06:19:02;;;;;;;2.40;1.83;;;;;;;-142.52;100.00;62712.56;6049579;29;20615;-71
2023/02/05 06:23:22;;;;;;;1.73;1.30;;;;;;;-142.52;100.00;62712.56;6036470;29;20234;-69
2023/02/05 06:27:41;;;;;;;1.93;1.83;;;;;;;-142.52;100.00;62712.56;6028615;29;20253;-69
2023/02/05 06:32:01;;;;;;;1.90;1.80;;;;;;;-142.52;100.00;62712.56;6024943;29;20233;-70
2023/02/05 06:36:21;;;;;;;2.73;1.47;;;;;;;-142.52;100.00;62712.56;6038371;29;20241;-71
2023/02/05 06:40:41;;;;;;;1.90;1.70;;;;;;;-142.52;100.00;62712.56;6047009;29;20245;-70
2023/02/05 06:45:01;;;;;;;1.83;1.73;;;;;;;-142.52;100.00;62712.56;6049212;29;21066;-69
2023/02/05 06:49:20;;;;;;;3.03;2.00;;;;;;;-142.52;100.00;62712.56;6041615;29;22736;-70
2023/02/05 06:53:41;;;;;;;1.57;1.47;;;;;;;-142.52;100.00;62712.56;6052374;29;20374;-71
2023/02/05 06:58:00;;;;;;;1.90;1.57;;;;;;;-142.52;100.00;62712.56;6061595;29;20723;-70
2023/02/05 07:02:20;;;;;;;1.87;1.77;;;;;;;-142.52;100.00;62712.56;6051950;29;20225;-70
2023/02/05 07:06:39;;;;;;;2.33;2.13;;;;;;;-142.52;100.00;62712.56;6056279;29;20349;-70
2023/02/05 07:11:01;;;;;;;2.33;1.80;;;;;;;-142.52;100.00;62712.56;6053220;29;20261;-69
2023/02/05 07:15:20;;;;;;;2.53;1.70;;;;;;;-142.52;100.00;62712.56;6018460;29;20230;-70
2023/02/05 07:19:39;;;;;;;2.17;1.80;;;;;;;-142.52;100.00;62712.56;6027749;29;20246;-71
2023/02/05 07:23:59;;;;;;;5.50;2.47;;;;;;;-142.52;100.00;62712.56;6033010;29;20244;-70
2023/02/05 07:28:19;;;;;;;2.10;1.90;;;;;;;-142.52;100.00;62712.56;6008892;29;20617;-70
2023/02/05 07:32:39;;;;;;;2.10;2.00;;;;;;;-142.52;100.00;62712.56;6022892;29;20230;-70
2023/02/05 07:37:00;;;;;;;1.53;1.40;;;;;;;-142.52;100.00;62712.56;6058267;29;20253;-71
2023/02/05 07:41:20;;;;;;;2.17;2.07;;;;;;;-142.52;100.00;62712.56;6023579;29;20232;-69
2023/02/05 07:45:40;;;;;;;1.63;1.53;;;;;;;-142.52;100.00;62712.56;6021821;29;20238;-70
2023/02/05 07:50:00;;;;;;;2.10;1.77;;;;;;;-142.52;100.00;62712.56;6019588;29;20234;-69
2023/02/05 07:54:19;;;;;;;1.83;1.73;;;;;;;-142.52;100.00;62712.56;6050400;29;20256;-70
2023/02/05 07:58:38;;;;;;;4.07;2.47;;;;;;;-142.52;100.00;62712.56;6047256;29;20237;-70
2023/02/05 08:02:59;;;;;;;2.20;1.97;;;;;;;-142.52;100.00;62712.56;6029219;29;20263;-70
2023/02/05 08:07:19;;;;;;;1.57;1.47;;;;;;;-142.52;100.00;62712.56;6046284;29;20554;-71
2023/02/05 08:11:38;;;;;;;2.07;1.97;;;;;;;-142.52;100.00;62712.56;6049324;29;20625;-70
2023/02/05 08:15:58;;;;;;;2.27;2.13;;;;;;;-142.52;100.00;62712.56;6029460;29;20245;-70
2023/02/05 08:20:19;;;;;;;2.17;2.07;;;;;;;-142.52;100.00;62712.56;6039820;29;20241;-70
2023/02/05 08:24:39;;;;;;;2.67;2.47;;;;;;;-142.52;100.00;62712.56;6021402;29;20241;-70
2023/02/05 08:28:58;;;;;;;2.63;2.43;;;;;;;-142.52;100.00;62712.56;6019525;29;20593;-71
2023/02/05 08:33:18;;;;;;;1.50;1.40;;;;;;;-142.52;100.00;62712.56;6040287;29;20245;-70
2023/02/05 08:37:39;;;;;;;2.33;1.80;;;;;;;-142.52;100.00;62712.56;6016584;29;20933;-71
2023/02/05 08:42:02;;;;;;;5.17;1.70;;;;;;;-142.52;100.00;62712.56;6052596;29;20241;-71
2023/02/05 08:46:23;;;;;;;2.10;1.90;;;;;;;-142.52;100.00;62712.56;6051414;29;20316;-70
2023/02/05 08:50:44;;;;;;;2.20;1.93;;;;;;;-142.52;100.00;62712.56;6054964;29;20308;-70
2023/02/05 08:55:05;;;;;;;1.43;1.33;;;;;;;-142.52;100.00;62712.56;6037715;29;20463;-70
2023/02/05 08:59:24;;;;;;;2.40;2.17;;;;;;;-142.52;100.00;62712.56;6031430;29;20365;-73
2023/02/05 09:03:44;;;;;;;1.90;1.80;;;;;;;-142.52;100.00;62712.56;6036563;29;20237;-70
2023/02/05 09:08:03;;;;;;;1.93;1.83;;;;;;;-142.52;100.00;62712.56;6020815;29;20226;-70
2023/02/05 09:12:24;;;;;;;5.30;2.47;;;;;;;-142.52;100.00;62712.56;6024002;29;20233;-72
2023/02/05 09:16:44;;;;;;;35.47;23.07;;;;;;;-142.52;100.00;62712.56;6026695;29;20320;-68
2023/02/05 09:21:05;;;;;;;41.77;30.60;;;;;;;-142.52;100.00;62712.56;6019794;29;20350;-68
2023/02/05 09:25:25;;;;;;;53.80;38.57;;;;;;;-142.52;100.00;62712.56;6045574;29;20332;-66
2023/02/05 09:29:45;;;;;;;31.00;22.50;;;;;;;-142.52;100.00;62712.56;6029393;29;20304;-67
2023/02/05 09:34:05;;;;;;;19.73;17.87;;;;;;;-142.52;100.00;62712.56;6029181;29;20624;-66
2023/02/05 09:38:24;;;;;;;50.73;39.23;;;;;;;-142.52;100.00;62712.56;6036963;29;20440;-73
2023/02/05 09:42:55;;;;;;;7.87;6.20;;;;;;;-142.52;100.00;62712.56;6030667;29;20648;-71
2023/02/05 09:47:23;;;;;;;2.37;2.17;;;;;;;-142.52;100.00;62712.56;6039343;29;20568;-72
2023/02/05 09:51:44;;;;;;;1.93;1.83;;;;;;;-142.52;100.00;62712.56;6052617;29;20245;-71
2023/02/05 09:56:09;;;;;;;3.17;1.80;;;;;;;-142.52;100.00;62712.56;6060487;29;20225;-72
2023/02/05 10:00:31;;;;;;;2.50;2.03;;;;;;;-142.52;100.00;62712.56;6063434;29;20249;-71
2023/02/05 10:04:55;;;;;;;2.50;1.70;;;;;;;-142.52;100.00;62712.56;6049209;29;20233;-71
2023/02/05 10:09:39;;;;;;;2.60;2.27;;;;;;;-142.52;100.00;62712.56;6043542;29;21137;-71
2023/02/05 10:14:21;;;;;;;2.90;2.60;;;;;;;-142.52;100.00;62712.56;6053771;29;21916;-71
2023/02/05 10:18:53;;;;;;;3.03;2.10;;;;;;;-142.52;100.00;62712.56;6042266;29;20233;-71
2023/02/05 10:23:16;;;;;;;1.80;1.70;;;;;;;-142.52;100.00;62712.56;6048237;29;20232;-71
2023/02/05 10:27:44;;;;;;;2.57;2.03;;;;;;;-142.52;100.00;62712.56;6050683;29;20615;-71
2023/02/05 10:32:14;;;;;;;4.03;2.60;;;;;;;-142.52;100.00;62712.56;6037272;29;20240;-71
2023/02/05 10:36:38;;;;;;;5.03;2.57;;;;;;;-142.52;100.00;62712.56;6053451;29;20261;-71
2023/02/05 10:41:04;;;;;;;3.03;2.63;;;;;;;-142.52;100.00;62712.56;6047639;29;20516;-72
2023/02/05 10:45:27;;;;;;;6.10;2.77;;;;;;;-142.52;100.00;62712.56;6030824;29;20229;-71
2023/02/05 10:49:52;;;;;;;2.47;2.27;;;;;;;-142.52;100.00;62712.56;6045746;29;22168;-71
2023/02/05 10:54:17;;;;;;;2.80;2.30;;;;;;;-142.52;100.00;62712.56;6044415;29;20763;-71
2023/02/05 10:58:40;;;;;;;1.77;1.63;;;;;;;-142.52;100.00;62712.56;6030423;29;20351;-70
2023/02/05 11:03:01;;;;;;;3.33;2.63;;;;;;;-142.52;100.00;62712.56;6030929;29;20249;-71
2023/02/05 11:07:24;;;;;;;6.70;3.80;;;;;;;-142.52;100.00;62712.56;6053168;29;20237;-70
2023/02/05 11:11:50;;;;;;;2.50;2.30;;;;;;;-142.52;100.00;62712.56;6052329;29;20264;-72
2023/02/05 11:16:18;;;;;;;2.53;2.33;;;;;;;-142.52;100.00;62712.56;6049490;29;20545;-71
2023/02/05 11:20:39;;;;;;;2.73;2.53;;;;;;;-142.52;100.00;62712.56;6031408;29;20245;-70
2023/02/05 11:25:15;;;;;;;2.47;2.13;;;;;;;-142.52;100.00;62712.56;6033022;29;20249;-71
2023/02/05 11:29:35;;;;;;;2.57;2.37;;;;;;;-142.52;100.00;62712.56;6046739;29;20289;-71
2023/02/05 11:34:09;;;;;;;2.90;2.03;;;;;;;-142.52;100.00;62712.56;6031410;29;20237;-71
2023/02/05 11:38:33;;;;;;;2.33;2.10;;;;;;;-142.52;100.00;62712.56;6050456;29;20233;-71
2023/02/05 11:42:58;;;;;;;3.03;2.83;;;;;;;-142.52;100.00;62712.56;6051380;29;20272;-71
2023/02/05 11:47:23;;;;;;;3.67;2.30;;;;;;;-142.52;100.00;62712.56;6057051;29;20232;-71
2023/02/05 11:51:46;;;;;;;2.23;2.03;;;;;;;-142.52;100.00;62712.56;6021259;29;20616;-72
2023/02/05 11:56:23;;;;;;;2.03;1.93;;;;;;;-142.52;100.00;62712.56;6008752;29;20517;-70
2023/02/05 12:00:56;;;;;;;3.50;2.73;;;;;;;-142.52;100.00;62712.56;6023835;29;20245;-69
2023/02/05 12:05:17;;;;;;;4.37;2.67;;;;;;;-142.52;100.00;62712.56;6035748;29;20234;-72
2023/02/05 12:09:41;;;;;;;3.53;3.17;;;;;;;-142.52;100.00;62712.56;6032529;29;20228;-70
2023/02/05 12:14:11;;;;;;;6.23;2.60;;;;;;;-142.52;100.00;62712.56;6048425;29;20682;-69
2023/02/05 12:18:38;;;;;;;2.43;2.07;;;;;;;-142.52;100.00;62712.56;6037467;29;20521;-70
2023/02/05 12:23:26;;;;;;;2.27;2.00;;;;;;;-142.52;100.00;62712.56;6053480;29;20237;-69
2023/02/05 12:27:57;;;;;;;3.47;1.90;;;;;;;-142.52;100.00;62712.56;6049624;29;20240;-70
2023/02/05 12:32:29;;;;;;;2.03;1.87;;;;;;;-142.52;100.00;62712.56;6047634;29;20260;-70
2023/02/05 12:37:04;;;;;;;3.03;2.00;;;;;;;-142.52;100.00;62712.56;6054140;29;20224;-71
2023/02/05 12:41:43;;;;;;;3.13;2.80;;;;;;;-142.52;100.00;62712.56;6039255;29;20319;-69
2023/02/05 12:46:32;;;;;;;3.23;2.40;;;;;;;-142.52;100.00;62712.56;6047456;29;22964;-71
2023/02/05 12:51:08;;;;;;;3.33;2.40;;;;;;;-142.52;100.00;62712.56;6033608;29;20647;-69
2023/02/05 12:55:48;;;;;;;4.67;2.33;;;;;;;-142.52;100.00;62712.56;6030831;29;20234;-71
2023/02/05 13:00:15;;;;;;;3.03;2.43;;;;;;;-142.52;100.00;62712.56;6032584;29;20329;-70
2023/02/05 13:04:40;;;;;;;2.73;2.50;;;;;;;-142.52;100.00;62712.56;6033034;29;20264;-71
2023/02/05 13:09:06;;;;;;;2.97;2.13;;;;;;;-142.52;100.00;62712.56;6074613;29;20602;-71
2023/02/05 13:13:29;;;;;;;2.73;2.37;;;;;;;-142.52;100.00;62712.56;6047017;29;20378;-72
2023/02/05 13:17:55;;;;;;;9.63;3.50;;;;;;;-142.52;100.00;62712.56;6054937;29;20328;-71
2023/02/05 13:31:37;;;;;;;4.43;2.83;;;;;;;-142.52;100.00;62712.56;6049375;29;20605;-72
2023/02/05 13:36:14;;;;;;;4.07;3.00;;;;;;;-142.52;100.00;62712.56;6052519;29;20226;-72
2023/02/05 13:41:12;;;;;;;4.50;2.77;;;;;;;-142.52;100.00;62712.56;6044050;29;20672;-71
2023/02/05 13:45:58;;;;;;;2.27;2.07;;;;;;;-142.52;100.00;62712.56;6045134;29;20748;-71
2023/02/05 13:50:52;;;;;;;3.60;3.10;;;;;;;-142.52;100.00;62712.56;6036622;29;20594;-71
2023/02/05 13:55:34;;;;;;;2.13;1.90;;;;;;;-142.52;100.00;62712.56;6045543;29;20226;-71
2023/02/05 13:59:55;;;;;;;5.57;2.37;;;;;;;-142.52;100.00;62712.56;6060657;29;20227;-71
2023/02/05 14:04:24;;;;;;;5.47;3.70;;;;;;;-142.52;100.00;62712.56;6051128;29;20577;-72
2023/02/05 14:08:46;;;;;;;4.33;3.33;;;;;;;-142.52;100.00;62712.56;6054321;29;20389;-71
2023/02/05 14:13:12;;;;;;;2.53;2.33;;;;;;;-142.52;100.00;62712.56;6055365;29;20225;-71
2023/02/05 14:18:01;;;;;;;2.80;2.30;;;;;;;-142.52;100.00;62712.56;6036627;29;20233;-73
2023/02/05 14:22:41;;;;;;;2.93;1.90;;;;;;;-142.52;100.00;62712.56;6011077;29;20238;-71
2023/02/05 14:27:20;;;;;;;10.40;7.07;;;;;;;-142.52;100.00;62712.56;6062572;29;20230;-70
2023/02/05 14:31:48;;;;;;;4.33;3.93;;;;;;;-142.52;100.00;62712.56;6055729;29;20340;-71
2023/02/05 14:36:39;;;;;;;4.40;3.93;;;;;;;-142.52;100.00;62712.56;6057534;29;20273;-71
2023/02/05 14:41:12;;;;;;;3.83;3.40;;;;;;;-142.52;100.00;62712.56;6049318;29;20717;-71
2023/02/05 14:45:34;;;;;;;3.77;2.63;;;;;;;-142.52;100.00;62712.56;6065860;29;20245;-71
2023/02/05 14:49:59;;;;;;;3.13;2.30;;;;;;;-142.52;100.00;62712.56;6056804;29;20230;-70
2023/02/05 14:54:23;;;;;;;2.13;2.03;;;;;;;-142.52;100.00;62712.56;6038536;29;20324;-72
2023/02/05 14:58:58;;;;;;;3.83;2.87;;;;;;;-142.52;100.00;62712.56;6034495;29;21490;-70
2023/02/05 15:03:37;;;;;;;3.07;2.73;;;;;;;-142.52;100.00;62712.56;6037651;29;22148;-71
2023/02/05 15:08:03;;;;;;;3.57;3.30;;;;;;;-142.52;100.00;62712.56;6069261;29;20233;-70
2023/02/05 15:12:40;;;;;;;2.07;1.97;;;;;;;-142.52;100.00;62712.56;6049584;29;20229;-71
2023/02/05 15:17:36;;;;;;;3.83;2.90;;;;;;;-142.52;100.00;62712.56;6067596;29;20702;-71
2023/02/05 15:21:57;;;;;;;3.70;2.40;;;;;;;-142.52;100.00;62712.56;6064106;29;20229;-71
2023/02/05 15:26:23;;;;;;;5.07;2.30;;;;;;;-142.52;100.00;62712.56;6060248;29;20252;-71
2023/02/05 15:30:52;;;;;;;4.07;2.93;;;;;;;-142.52;100.00;62712.56;6062191;29;20232;-70
2023/02/05 15:35:28;;;;;;;3.73;3.13;;;;;;;-142.52;100.00;62712.56;6058012;29;20522;-71
2023/02/05 15:39:54;;;;;;;3.20;2.50;;;;;;;-142.52;100.00;62712.56;6043904;29;21083;-71
2023/02/05 15:44:20;;;;;;;3.17;2.87;;;;;;;-142.52;100.00;62712.56;6047183;29;20273;-71
2023/02/05 15:48:40;;;;;;;3.03;2.83;;;;;;;-142.52;100.00;62712.56;6062638;29;20221;-71
2023/02/05 15:53:01;;;;;;;7.73;3.50;;;;;;;-142.52;100.00;62712.56;6048897;29;20233;-71
2023/02/05 15:57:24;;;;;;;11.03;6.53;;;;;;;-142.52;100.00;62712.56;6065285;29;20230;-72
2023/02/05 16:01:29;;;;;;;6.57;4.33;;;;;;;;;;6058270;29;20546;-71
2023/02/05 16:04:56;;;;;;;4.53;3.67;;;;;;;8.59;54.68;103683.41;6040749;29;20246;-71
2023/02/05 16:08:22;;;;;;;2.90;2.70;;;;;;;8.54;55.77;103691.66;6065368;29;20638;-70
2023/02/05 16:11:43;;;;;;;3.80;2.57;;;;;;;8.57;55.18;103698.72;6063173;29;20613;-71
2023/02/05 16:15:07;;;;;;;4.07;3.00;;;;;;;8.66;54.13;103695.69;6032951;29;20529;-71
2023/02/05 16:18:37;;;;;;;2.93;2.67;;;;;;;8.56;54.12;103694.25;6055416;29;20491;-70
2023/02/05 16:22:01;;;;;;;3.23;2.40;;;;;;;8.60;56.20;103702.19;6022352;29;20330;-70
2023/02/05 16:25:33;;;;;;;3.43;2.97;;;;;;;8.62;55.29;103716.44;6053850;29;20245;-71
2023/02/05 16:28:58;;;;;;;5.63;3.07;;;;;;;8.61;55.42;103730.84;6055726;29;20577;-72
2023/02/05 16:32:28;;;;;;;3.40;2.83;;;;;;;8.41;56.65;103727.94;6067986;29;20228;-70
2023/02/05 16:35:49;;;;;;;5.57;3.20;;;;;;;8.36;55.96;103734.41;6064494;29;20240;-71
2023/02/05 16:39:19;;;;;;;6.17;3.77;;;;;;;8.45;56.14;103728.72;6060069;29;20245;-71
2023/02/05 16:42:44;;;;;;;4.07;3.40;;;;;;;8.80;55.72;103725.69;6038197;29;20242;-69
2023/02/05 16:46:33;;;;;;;3.40;2.70;;;;;;;8.84;54.83;103728.19;6030062;29;20508;-71
2023/02/05 16:49:54;;;;;;;7.40;3.80;;;;;;;8.48;56.00;103736.69;6068276;29;20229;-72
2023/02/05 16:53:19;;;;;;;4.13;3.63;;;;;;;8.17;59.27;103752.03;6047224;29;21876;-72
2023/02/05 16:56:47;;;;;;;8.13;4.90;;;;;;;8.25;58.91;103758.03;6063871;29;20264;-69
2023/02/05 17:00:20;;;;;;;4.87;4.30;;;;;;;8.48;58.23;103763.56;6060482;29;21656;-69
2023/02/05 17:03:47;;;;;;;4.80;4.40;;;;;;;8.30;59.00;103764.19;6046442;29;20238;-70
2023/02/05 17:07:18;;;;;;;6.33;4.83;;;;;;;8.31;59.81;103769.50;6048750;29;20228;-74
2023/02/05 17:10:50;;;;;;;5.13;3.43;;;;;;;8.31;59.33;103776.66;6085106;29;20229;-71
2023/02/05 17:14:21;;;;;;;7.97;5.37;;;;;;;8.44;60.17;103776.22;6064454;29;20631;-72
2023/02/05 17:17:49;;;;;;;4.73;3.50;;;;;;;8.64;59.55;103779.13;6058113;29;20240;-70
2023/02/05 17:21:24;;;;;;;4.87;4.40;;;;;;;8.43;60.04;103789.69;6067589;29;20228;-70
2023/02/05 17:24:47;;;;;;;8.67;5.70;;;;;;;8.16;60.85;103788.78;6067642;29;20256;-71
2023/02/05 17:28:14;;;;;;;10.53;5.73;;;;;;;8.22;62.21;103787.72;6057547;29;20237;-69
2023/02/05 17:31:37;;;;;;;7.60;5.70;;;;;;;8.61;67.26;103795.38;6040046;29;20234;-68
2023/02/05 17:34:59;;;;;;;10.67;9.57;;;;;;;8.75;65.13;103789.50;6066404;29;21079;-66
2023/02/05 17:38:22;;;;;;;23.20;18.30;;;;;;;8.93;66.46;103796.91;6045952;29;20238;-70
2023/02/05 17:42:06;;;;;;;87.93;55.80;;;;;;;9.35;67.96;103799.88;6037580;29;21238;-66
2023/02/05 17:45:33;;;;;;;341.47;308.80;;;;;;;9.64;68.66;103795.16;6068104;29;20335;-68
2023/02/05 17:48:54;;;;;;;244.57;214.60;;;;;;;9.73;64.15;103801.13;6057635;29;20325;-65
2023/02/05 17:52:17;;;;;;;1406.47;877.43;;;;;;;9.90;65.24;103810.34;6056762;29;20245;-69
2023/02/05 17:55:39;;;;;;;351.50;243.10;;;;;;;10.01;63.92;103820.69;6047548;29;20237;-68
2023/02/05 17:58:59;;;;;;;754.90;562.00;;;;;;;9.98;62.61;103819.00;6065853;29;20237;-66
2023/02/05 18:02:20;;;;;;;93.67;75.47;;;;;;;9.96;59.77;103825.38;6051121;29;20332;-70
2023/02/05 18:05:41;;;;;;;17.60;9.83;;;;;;;9.60;59.89;103839.31;6049553;29;20659;-69
2023/02/05 18:09:04;;;;;;;8.73;6.93;;;;;;;9.64;59.54;103835.56;6038106;29;20245;-70
2023/02/05 18:12:25;;;;;;;12.23;7.73;;;;;;;9.52;60.13;103825.25;6044908;29;20620;-70
2023/02/05 18:15:49;;;;;;;12.73;6.77;;;;;;;9.58;59.38;103826.84;6037632;29;20249;-70
2023/02/05 18:19:09;;;;;;;9.03;8.03;;;;;;;9.44;60.36;103839.94;6065786;29;20237;-69
2023/02/05 18:22:30;;;;;;;8.60;6.90;;;;;;;8.75;62.52;103846.88;6057180;29;20332;-69
2023/02/05 18:25:52;;;;;;;12.80;6.43;;;;;;;8.59;63.64;103848.31;6037839;29;20246;-70
2023/02/05 18:29:13;;;;;;;13.40;7.40;;;;;;;8.97;61.79;103843.47;6061616;29;20720;-70
2023/02/05 18:32:34;;;;;;;10.07;6.77;;;;;;;8.48;64.05;103828.97;6058684;29;20323;-70
2023/02/05 18:35:59;;;;;;;10.00;8.27;;;;;;;8.68;62.68;103829.16;6063365;29;20236;-70
2023/02/05 18:39:20;;;;;;;10.63;9.57;;;;;;;8.34;65.08;103865.28;6050436;29;20225;-70
2023/02/05 18:42:45;;;;;;;11.67;7.47;;;;;;;8.31;64.95;103870.75;6055834;29;20237;-70
2023/02/05 18:46:07;;;;;;;9.80;6.77;;;;;;;8.40;64.26;103863.28;6037590;29;20229;-69
2023/02/05 18:49:28;;;;;;;11.50;6.47;;;;;;;7.93;65.94;103856.66;6046342;29;20339;-70
2023/02/05 18:52:49;;;;;;;13.10;9.53;;;;;;;8.35;65.21;103846.41;6038168;29;20768;-70
2023/02/05 18:56:14;;;;;;;11.00;6.67;;;;;;;8.28;65.50;103860.97;6056232;29;20234;-70
2023/02/05 18:59:36;;;;;;;8.80;7.27;;;;;;;8.48;64.25;103845.09;6055465;29;20241;-70
2023/02/05 19:02:57;;;;;;;9.20;6.87;;;;;;;8.69;63.16;103841.69;6029206;29;20709;-68
2023/02/05 19:06:19;;;;;;;13.10;6.30;;;;;;;9.15;64.09;103848.19;6027952;29;20242;-72
2023/02/05 19:09:40;;;;;;;12.47;6.70;;;;;;;8.52;64.52;103856.63;6038627;29;20237;-68
2023/02/05 19:13:01;;;;;;;10.20;7.77;;;;;;;8.33;65.85;103855.44;6051872;29;20604;-69
2023/02/05 19:16:24;;;;;;;11.10;6.73;;;;;;;8.32;64.99;103870.72;6057454;29;20320;-70
2023/02/05 19:19:45;;;;;;;9.33;6.40;;;;;;;8.36;65.81;103861.63;6057403;29;20226;-69
2023/02/05 19:23:06;;;;;;;14.83;8.67;;;;;;;8.43;65.82;103868.53;6059734;29;20615;-70
2023/02/05 19:26:28;;;;;;;12.23;8.03;;;;;;;8.45;64.61;103866.69;6043632;29;20257;-69
2023/02/05 19:30:48;;;;;;;6.87;6.13;;;;;;;-142.52;100.00;62712.56;6050932;29;20339;-69